Time;durP1;ratioP1;P1;durP2;ratioP2;P2;SDS_P1;SDS_P2;PMS_P1;PMS_P2;Temp;Humidity;BMP_temperature;BMP_pressure;BME280_temperature;BME280_humidity;BME280_pressure;Samples;Min_cycle;Max_cycle;Signal;HPM_P1;HPM_P2
2021/11/12 00:17:21;;;;;;;36.10;20.20;;;;;;;2.89;83.25;99426.77;215654;1313;24205;-76
2021/11/12 00:22:31;;;;;;;39.50;21.50;;;;;;;2.90;83.20;99429.17;216089;1314;24167;-76
2021/11/12 00:27:35;;;;;;;39.20;20.60;;;;;;;2.88;82.84;99425.25;215699;1317;25473;-76
2021/11/12 00:38:11;;;;;;;40.00;20.40;;;;;;;2.67;82.12;99416.95;215546;1316;24294;-76
2021/11/12 00:43:30;;;;;;;36.20;19.60;;;;;;;2.59;82.20;99420.24;215351;1314;24260;-76
2021/11/12 00:48:36;;;;;;;40.80;21.40;;;;;;;2.52;82.25;99419.95;215766;1316;22620;-76
2021/11/12 00:53:50;;;;;;;38.20;19.60;;;;;;;2.51;82.49;99420.28;215493;1318;22737;-76
2021/11/12 00:58:54;;;;;;;38.10;20.60;;;;;;;2.52;82.63;99420.33;215838;1317;25322;-76
2021/11/12 01:03:58;;;;;;;43.40;21.70;;;;;;;2.51;82.56;99418.62;215505;1319;22811;-76
2021/11/12 01:09:03;;;;;;;41.30;20.80;;;;;;;2.43;82.11;99415.65;215856;1318;24462;-77
2021/11/12 01:14:11;;;;;;;43.20;19.90;;;;;;;2.29;81.94;99417.50;215705;1313;22555;-77
2021/11/12 01:19:13;;;;;;;37.10;19.80;;;;;;;2.16;81.72;99417.61;215305;1317;25377;-76
2021/11/12 01:24:16;;;;;;;38.90;19.60;;;;;;;1.97;81.58;99424.40;216022;1309;22625;-76
2021/11/12 01:29:22;;;;;;;43.80;21.60;;;;;;;1.81;81.63;99424.11;215796;1318;23385;-77
2021/11/12 01:34:38;;;;;;;46.50;24.50;;;;;;;1.73;82.24;99421.41;215353;1312;22856;-76
2021/11/12 01:39:54;;;;;;;55.40;26.80;;;;;;;1.72;82.57;99418.00;215452;1310;23120;-77
2021/11/12 01:45:07;;;;;;;62.20;29.70;;;;;;;1.81;83.00;99410.34;215664;1314;25223;-77
2021/11/12 01:50:15;;;;;;;53.50;26.60;;;;;;;2.04;83.57;99409.39;215226;1317;24716;-76
2021/11/12 01:55:42;;;;;;;55.00;27.80;;;;;;;2.28;83.73;99405.05;215428;1317;24253;-76
2021/11/12 02:00:55;;;;;;;50.60;27.30;;;;;;;2.56;83.88;99401.80;215668;1314;24257;-76
2021/11/12 02:06:02;;;;;;;47.20;25.50;;;;;;;2.76;83.85;99395.91;215480;1316;22735;-76
2021/11/12 02:11:09;;;;;;;43.40;21.80;;;;;;;2.92;83.81;99392.75;215333;1319;25448;-76
2021/11/12 02:16:29;;;;;;;47.00;22.80;;;;;;;3.07;83.60;99387.60;216015;1317;25972;-76
2021/11/12 02:21:50;;;;;;;42.10;22.20;;;;;;;3.21;83.26;99385.38;214982;1319;25447;-76
2021/11/12 02:26:58;;;;;;;40.60;21.70;;;;;;;3.33;83.12;99383.88;215815;1313;22775;-75
2021/11/12 02:32:00;;;;;;;40.40;23.00;;;;;;;3.45;83.15;99379.30;215722;1314;24202;-76
2021/11/12 02:37:03;;;;;;;44.20;24.80;;;;;;;3.56;83.01;99370.29;215332;1316;25476;-76
2021/11/12 02:42:07;;;;;;;43.20;24.60;;;;;;;3.70;83.09;99367.15;215917;1316;22579;-76
2021/11/12 02:47:14;;;;;;;48.70;27.10;;;;;;;3.76;82.58;99365.13;216005;1313;24257;-76
2021/11/12 02:52:18;;;;;;;46.70;24.70;;;;;;;3.72;82.22;99360.55;215626;1316;24401;-76
2021/11/12 02:57:27;;;;;;;47.40;24.80;;;;;;;3.76;82.32;99362.36;215890;1314;24387;-76
2021/11/12 03:02:31;;;;;;;45.90;23.00;;;;;;;3.85;82.57;99360.57;215832;1316;22616;-76
2021/11/12 03:07:35;;;;;;;48.50;25.00;;;;;;;3.90;82.02;99359.84;216147;1315;24331;-76
2021/11/12 03:12:48;;;;;;;51.60;25.40;;;;;;;3.91;82.08;99355.55;215861;1316;22573;-77
2021/11/12 03:17:55;;;;;;;44.70;26.00;;;;;;;4.01;82.39;99355.30;215811;1315;22659;-77
2021/11/12 03:28:47;;;;;;;46.40;24.70;;;;;;;4.11;82.16;99360.98;215812;1310;24269;-75
2021/11/12 04:01:31;;;;;;;43.40;25.10;;;;;;;4.38;82.32;99374.79;216305;1316;22769;-75
2021/11/12 05:10:01;;;;;;;57.80;33.30;;;;;;;4.61;81.06;99392.35;215680;1316;198061;-76
2021/11/12 05:58:09;;;;;;;51.70;27.30;;;;;;;4.55;80.88;99415.95;215689;1316;24250;-76
2021/11/12 06:03:12;;;;;;;50.60;27.60;;;;;;;4.58;80.91;99426.26;216298;1314;25053;-76
2021/11/12 06:08:15;;;;;;;51.70;29.10;;;;;;;4.61;80.84;99426.40;215778;1313;22586;-76
2021/11/12 06:13:24;;;;;;;53.10;29.60;;;;;;;4.64;80.76;99424.52;215922;1316;24225;-76
2021/11/12 06:18:28;;;;;;;;;;;;;;;4.65;80.70;99435.05;216238;1315;22752;-76
2021/11/12 06:23:31;;;;;;;53.40;29.60;;;;;;;4.61;80.63;99438.90;215960;1314;22580;-77
2021/11/12 06:28:33;;;;;;;57.90;31.00;;;;;;;4.61;80.88;99445.23;216202;1310;24250;-76
2021/11/12 06:33:36;;;;;;;51.70;29.30;;;;;;;4.66;80.83;99451.67;215839;1312;24260;-77
2021/11/12 06:38:39;;;;;;;54.30;29.00;;;;;;;4.70;80.94;99454.06;216041;1316;24260;-78
2021/11/12 06:54:11;;;;;;;46.20;27.10;;;;;;;4.92;80.63;99444.81;215971;1310;22593;-77
2021/11/12 06:59:18;;;;;;;50.00;25.60;;;;;;;4.98;80.89;99451.28;215738;1310;24723;-77
2021/11/12 07:04:21;;;;;;;45.80;27.40;;;;;;;5.01;80.61;99450.71;215803;1316;24250;-76
2021/11/12 07:09:23;;;;;;;44.50;24.80;;;;;;;5.04;80.56;99450.17;215842;1315;22574;-76
2021/11/12 07:14:27;;;;;;;50.80;26.00;;;;;;;5.05;80.17;99450.20;215856;1316;22666;-77
2021/11/12 07:19:29;;;;;;;45.50;25.40;;;;;;;5.10;80.56;99446.60;215758;1310;22579;-76
2021/11/12 07:24:37;;;;;;;49.70;26.70;;;;;;;5.17;80.66;99441.41;215700;1316;22671;-76
2021/11/12 07:29:45;;;;;;;49.60;28.30;;;;;;;5.24;80.57;99442.89;216183;1316;22502;-76
2021/11/12 07:34:51;;;;;;;50.30;28.20;;;;;;;5.36;80.71;99441.98;215624;1313;25397;-76
2021/11/12 07:39:54;;;;;;;61.80;34.20;;;;;;;5.46;80.79;99435.69;215960;1317;24193;-75
2021/11/12 07:45:09;;;;;;;68.70;36.90;;;;;;;5.54;80.64;99442.22;216023;1314;24210;-76
2021/11/12 07:50:13;;;;;;;76.50;40.80;;;;;;;5.58;80.51;99441.68;215895;1313;22630;-76
2021/11/12 07:55:15;;;;;;;80.40;42.20;;;;;;;5.63;80.26;99445.13;215915;1311;24346;-76
2021/11/12 08:00:18;;;;;;;93.00;48.70;;;;;;;5.66;80.14;99442.89;215776;1316;24222;-76
2021/11/12 08:05:29;;;;;;;94.40;48.10;;;;;;;5.76;80.26;99440.88;216248;1314;25514;-77
2021/11/12 08:10:35;;;;;;;86.60;46.30;;;;;;;5.87;80.44;99431.81;215751;1313;24391;-77
2021/11/12 08:16:11;;;;;;;91.30;48.90;;;;;;;5.94;79.87;99425.17;215904;1317;24246;-76
2021/11/12 08:36:59;;;;;;;71.70;38.80;;;;;;;6.33;79.51;99415.41;215571;1310;24291;-76
2021/11/12 08:42:08;;;;;;;71.20;40.70;;;;;;;6.39;79.03;99410.34;216018;1311;24406;-77
2021/11/12 08:52:16;;;;;;;66.50;34.40;;;;;;;6.46;79.11;99407.87;215892;1310;22621;-76
2021/11/12 08:57:19;;;;;;;62.90;34.70;;;;;;;6.57;79.17;99401.05;215889;1310;22678;-76
2021/11/12 09:02:26;;;;;;;57.00;32.80;;;;;;;6.73;79.12;99396.55;215872;1310;24250;-76
2021/11/12 09:07:37;;;;;;;53.80;32.30;;;;;;;6.81;78.66;99392.98;215857;1314;22578;-75
2021/11/12 09:12:42;;;;;;;65.60;36.40;;;;;;;6.86;78.55;99394.75;215602;1313;22580;-77
2021/11/12 09:17:47;;;;;;;53.00;30.10;;;;;;;6.93;78.52;99391.37;215661;1310;22621;-77
2021/11/12 09:22:59;;;;;;;57.10;32.80;;;;;;;7.02;78.17;99390.73;215892;1310;22505;-76
2021/11/12 09:28:04;;;;;;;58.40;33.80;;;;;;;7.11;78.16;99380.91;215759;1313;22693;-76
2021/11/12 09:33:07;;;;;;;55.40;32.60;;;;;;;7.14;77.80;99378.33;215998;1316;22577;-76
2021/11/12 09:38:11;;;;;;;50.70;30.70;;;;;;;7.17;77.64;99379.48;215697;1316;22593;-76
2021/11/12 09:43:23;;;;;;;61.40;32.80;;;;;;;7.17;77.29;99367.55;215950;1316;25401;-76
2021/11/12 09:48:40;;;;;;;57.00;33.10;;;;;;;7.20;77.55;99364.96;215855;1314;25441;-76
2021/11/12 09:53:43;;;;;;;55.10;30.20;;;;;;;7.24;77.83;99358.66;215997;1313;22564;-77
2021/11/12 09:58:48;;;;;;;42.70;24.20;;;;;;;7.29;78.12;99352.54;216079;1315;22581;-76
2021/11/12 10:04:04;;;;;;;33.40;20.90;;;;;;;7.24;77.10;99346.19;216155;1315;22988;-77
2021/11/12 10:09:20;;;;;;;33.30;20.10;;;;;;;7.10;76.42;99340.36;215840;1316;24327;-76
2021/11/12 10:14:43;;;;;;;34.30;20.20;;;;;;;6.97;76.65;99337.34;215775;1316;24237;-75
2021/11/12 10:19:51;;;;;;;41.30;22.50;;;;;;;6.97;76.62;99332.65;215851;1316;22848;-76
2021/11/12 10:24:55;;;;;;;40.00;23.00;;;;;;;7.00;76.87;99334.39;216185;1316;24259;-77
2021/11/12 10:30:09;;;;;;;44.80;24.40;;;;;;;7.12;76.88;99334.13;215749;1316;22574;-76
2021/11/12 10:35:22;;;;;;;45.70;25.90;;;;;;;7.07;76.47;99330.30;216175;1316;24279;-76
2021/11/12 10:40:28;;;;;;;44.00;25.20;;;;;;;7.15;76.96;99330.17;216068;1315;24272;-77
2021/11/12 10:45:34;;;;;;;54.20;30.10;;;;;;;7.12;76.05;99322.10;216160;1315;22608;-77
2021/11/12 10:50:40;;;;;;;49.60;28.80;;;;;;;6.93;75.85;99321.16;215732;1316;24449;-76
2021/11/12 10:55:58;;;;;;;42.40;25.40;;;;;;;6.81;76.50;99308.94;215773;1313;24221;-76
2021/11/12 11:01:10;;;;;;;47.90;27.80;;;;;;;6.83;76.54;99307.80;215754;1316;22776;-76
2021/11/12 11:06:23;;;;;;;41.90;24.00;;;;;;;6.80;76.71;99307.11;215621;1316;22737;-76
2021/11/12 11:11:41;;;;;;;43.70;25.30;;;;;;;6.89;76.66;99303.90;215847;1315;22675;-76
2021/11/12 11:16:45;;;;;;;43.70;24.70;;;;;;;6.98;76.50;99294.98;216158;1317;22686;-76
2021/11/12 11:22:04;;;;;;;47.80;25.90;;;;;;;6.90;75.99;99285.60;216030;1317;24221;-76
2021/11/12 11:27:06;;;;;;;44.70;25.50;;;;;;;6.91;76.30;99278.89;215903;1316;22739;-75
2021/11/12 11:32:10;;;;;;;71.90;44.50;;;;;;;6.92;76.12;99280.87;215748;1314;22650;-75
2021/11/12 11:37:13;;;;;;;47.80;27.90;;;;;;;6.95;76.11;99285.48;215751;1309;22571;-77
2021/11/12 11:42:17;;;;;;;53.10;30.40;;;;;;;6.80;75.70;99280.06;216152;1316;23159;-77
2021/11/12 11:47:23;;;;;;;47.20;27.00;;;;;;;6.72;76.19;99278.22;216243;1316;22580;-77
2021/11/12 11:52:30;;;;;;;50.50;27.50;;;;;;;6.67;76.24;99274.60;216269;1310;22636;-77
2021/11/12 11:57:33;;;;;;;47.70;27.70;;;;;;;6.60;76.10;99268.61;215967;1316;22587;-76
2021/11/12 12:02:35;;;;;;;50.70;29.00;;;;;;;6.64;76.59;99257.52;215706;1317;22779;-78
2021/11/12 12:07:49;;;;;;;55.20;29.30;;;;;;;6.77;76.91;99249.89;215997;1316;25425;-77
2021/11/12 12:13:03;;;;;;;53.40;28.60;;;;;;;6.83;77.04;99234.67;215958;1316;22566;-76
2021/11/12 12:18:16;;;;;;;49.40;27.60;;;;;;;6.94;76.80;99232.84;215155;1317;24273;-77
2021/11/12 12:34:14;;;;;;;49.60;27.40;;;;;;;7.02;75.67;99237.66;216204;1316;25546;-76
2021/11/12 13:28:33;;;;;;;47.40;27.20;;;;;;;6.92;76.34;99200.55;215730;1316;22579;-76
2021/11/12 13:33:41;;;;;;;53.90;30.10;;;;;;;6.91;76.02;99205.54;216210;1316;23171;-77
2021/11/12 13:38:48;;;;;;;52.10;29.00;;;;;;;6.89;76.04;99202.27;215728;1316;22600;-76
2021/11/12 13:43:57;;;;;;;49.10;27.70;;;;;;;6.90;75.95;99189.81;215810;1317;24260;-77
2021/11/12 13:49:00;;;;;;;43.50;25.70;;;;;;;6.89;75.76;99179.05;215783;1315;22525;-76
2021/11/12 13:54:05;;;;;;;43.10;25.10;;;;;;;6.85;75.85;99171.56;215195;1316;24285;-76
2021/11/12 13:59:13;;;;;;;49.20;26.70;;;;;;;6.78;75.79;99174.92;215887;1318;24318;-75
2021/11/12 14:04:23;;;;;;;47.00;26.80;;;;;;;6.72;76.02;99185.73;216167;1317;22991;-77
2021/11/12 14:09:34;;;;;;;40.70;24.40;;;;;;;6.64;76.20;99188.41;215746;1316;24513;-77
2021/11/12 14:14:39;;;;;;;47.60;25.40;;;;;;;6.56;75.94;99180.45;215630;1316;24206;-76
2021/11/12 14:19:57;;;;;;;45.70;25.70;;;;;;;6.44;76.00;99175.83;215999;1319;25966;-74
2021/11/12 14:25:37;;;;;;;46.90;26.40;;;;;;;6.34;75.95;99168.86;215964;1318;25335;-77
2021/11/12 14:36:24;;;;;;;52.40;29.50;;;;;;;6.24;76.56;99167.16;215291;1316;25451;-76
2021/11/12 14:52:08;;;;;;;58.40;31.60;;;;;;;6.39;77.17;99151.57;215719;1316;25354;-77
2021/11/12 15:02:28;;;;;;;46.70;26.20;;;;;;;6.36;76.68;99146.42;215648;1314;22597;-76
2021/11/12 15:07:39;;;;;;;54.90;31.80;;;;;;;6.32;76.88;99147.17;215838;1316;22975;-76
2021/11/12 15:12:47;;;;;;;54.60;30.00;;;;;;;6.25;76.84;99144.97;215839;1312;25419;-77
2021/11/12 15:17:53;;;;;;;55.10;29.60;;;;;;;6.21;76.99;99142.60;216042;1310;22607;-76
2021/11/12 15:33:25;;;;;;;47.70;26.90;;;;;;;6.07;77.08;99140.48;215972;1310;24259;-76
2021/11/12 15:43:58;;;;;;;44.00;27.20;;;;;;;6.06;77.26;99132.86;216042;1314;25892;-77
2021/11/12 15:48:56;;;;;;;53.30;30.10;;;;;;;6.09;77.35;99137.84;215768;1315;24330;-77
2021/11/12 16:09:49;;;;;;;55.60;30.90;;;;;;;6.02;77.46;99141.38;215858;1315;24400;-76
2021/11/12 16:25:37;;;;;;;44.80;28.70;;;;;;;6.04;77.40;99148.91;216068;1316;24407;-76
2021/11/12 16:30:58;;;;;;;56.10;32.00;;;;;;;6.00;77.26;99146.52;215801;1316;23873;-76
2021/11/12 16:36:09;;;;;;;40.70;24.00;;;;;;;5.98;77.27;99142.77;215835;1316;24231;-76
2021/11/12 16:41:23;;;;;;;52.40;28.90;;;;;;;5.86;77.21;99146.34;216069;1317;24282;-76
2021/11/12 17:08:09;;;;;;;54.80;32.40;;;;;;;5.81;77.70;99157.39;215794;1314;25402;-77
2021/11/12 18:07:07;;;;;;;57.40;33.70;;;;;;;5.78;77.94;99115.35;215758;1315;24257;-77
2021/11/12 21:46:39;;;;;;;64.50;33.30;;;;;;;5.42;78.97;99027.53;216092;1315;22580;-76
2021/11/12 21:51:44;;;;;;;64.70;33.00;;;;;;;5.39;79.19;99024.52;216251;1315;22590;-76
2021/11/12 21:56:46;;;;;;;68.30;33.30;;;;;;;5.37;79.33;99025.09;215723;1314;24714;-77
2021/11/12 22:01:50;;;;;;;64.80;31.70;;;;;;;5.33;79.17;99024.15;215771;1315;24282;-76
2021/11/12 22:06:57;;;;;;;64.20;34.00;;;;;;;5.29;79.48;99018.90;215764;1310;24340;-75
2021/11/12 22:12:02;;;;;;;62.90;32.30;;;;;;;5.29;79.72;99017.40;216055;1315;24699;-75
2021/11/12 22:17:08;;;;;;;64.80;31.40;;;;;;;5.29;79.57;99015.48;215747;1316;22625;-77
2021/11/12 22:22:24;;;;;;;61.50;32.40;;;;;;;5.31;79.88;99012.80;215902;1309;24698;-76
2021/11/12 22:27:27;;;;;;;66.80;34.20;;;;;;;5.29;79.80;99008.27;216007;1310;24260;-75
2021/11/12 22:32:29;;;;;;;66.90;34.80;;;;;;;5.30;79.80;99003.38;215668;1313;22544;-76
2021/11/12 22:37:46;;;;;;;70.80;33.40;;;;;;;5.30;79.72;99000.36;216135;1314;22577;-76
2021/11/12 22:43:02;;;;;;;;;;;;;;;5.30;79.88;98993.33;216055;1314;24282;-76
2021/11/12 22:48:06;;;;;;;60.00;29.50;;;;;;;5.27;79.91;98991.83;216108;1314;24293;-76
2021/11/12 22:53:10;;;;;;;68.10;32.30;;;;;;;5.25;80.06;98989.66;216201;1310;22565;-76
2021/11/12 22:58:13;;;;;;;61.20;30.80;;;;;;;5.25;79.96;98980.27;215879;1310;22625;-76
2021/11/12 23:03:17;;;;;;;67.60;33.20;;;;;;;5.25;80.13;98980.27;216086;1310;25566;-76
2021/11/12 23:08:20;;;;;;;66.80;31.80;;;;;;;5.25;80.15;98972.95;215876;1315;24253;-76
2021/11/12 23:13:38;;;;;;;66.00;32.70;;;;;;;5.23;79.89;98970.04;216197;1314;22728;-75
2021/11/12 23:18:52;;;;;;;60.10;29.40;;;;;;;5.20;80.20;98971.23;216142;1315;22598;-76
2021/11/12 23:23:54;;;;;;;59.80;29.30;;;;;;;5.21;80.49;98959.45;215702;1315;24336;-75
2021/11/12 23:28:58;;;;;;;61.20;30.90;;;;;;;5.20;80.18;98950.90;215737;1316;22613;-77
2021/11/12 23:34:04;;;;;;;52.90;27.80;;;;;;;5.16;80.27;98947.88;216363;1315;24426;-76
2021/11/12 23:39:21;;;;;;;62.30;29.40;;;;;;;5.14;80.37;98944.86;215763;1310;24346;-76
2021/11/12 23:44:43;;;;;;;59.10;28.00;;;;;;;5.12;80.45;98936.99;216015;1310;25550;-76
2021/11/12 23:49:46;;;;;;;61.00;28.90;;;;;;;5.11;80.56;98942.66;216031;1314;24358;-76
2021/11/12 23:54:55;;;;;;;63.80;29.80;;;;;;;5.08;80.50;98932.22;216088;1314;24246;-75
2021/11/12 23:59:58;;;;;;;62.20;29.70;;;;;;;5.05;80.57;98930.53;216070;1314;24474;-75
